Map

Track Data

SID SEASON NUMBER BASIN SUBBASIN NAME ISO_TIME NATURE LAT LON WMO_WIND WMO_PRES WMO_AGENCY TRACK_TYPE DIST2LAND LANDFALL IFLAG USA_AGENCY USA_ATCF_ID USA_LAT USA_LON USA_RECORD USA_STATUS USA_WIND USA_PRES USA_SSHS USA_R34_NE USA_R34_SE USA_R34_SW USA_R34_NW USA_R50_NE USA_R50_SE USA_R50_SW USA_R50_NW USA_R64_NE USA_R64_SE USA_R64_SW USA_R64_NW USA_POCI USA_ROCI USA_RMW USA_EYE TOKYO_LAT TOKYO_LON TOKYO_GRADE TOKYO_WIND TOKYO_PRES TOKYO_R50_DIR TOKYO_R50_LONG TOKYO_R50_SHORT TOKYO_R30_DIR TOKYO_R30_LONG TOKYO_R30_SHORT TOKYO_LAND CMA_LAT CMA_LON CMA_CAT CMA_WIND CMA_PRES HKO_LAT HKO_LON HKO_CAT HKO_WIND HKO_PRES NEWDELHI_LAT NEWDELHI_LON NEWDELHI_GRADE NEWDELHI_WIND NEWDELHI_PRES NEWDELHI_CI NEWDELHI_DP NEWDELHI_POCI REUNION_LAT REUNION_LON REUNION_TYPE REUNION_WIND REUNION_PRES REUNION_TNUM REUNION_CI REUNION_RMW REUNION_R34_NE REUNION_R34_SE REUNION_R34_SW REUNION_R34_NW REUNION_R50_NE REUNION_R50_SE REUNION_R50_SW REUNION_R50_NW REUNION_R64_NE REUNION_R64_SE REUNION_R64_SW REUNION_R64_NW BOM_LAT BOM_LON BOM_TYPE BOM_WIND BOM_PRES BOM_TNUM BOM_CI BOM_RMW BOM_R34_NE BOM_R34_SE BOM_R34_SW BOM_R34_NW BOM_R50_NE BOM_R50_SE BOM_R50_SW BOM_R50_NW BOM_R64_NE BOM_R64_SE BOM_R64_SW BOM_R64_NW BOM_ROCI BOM_POCI BOM_EYE BOM_POS_METHOD BOM_PRES_METHOD NADI_LAT NADI_LON NADI_CAT NADI_WIND NADI_PRES WELLINGTON_LAT WELLINGTON_LON WELLINGTON_WIND WELLINGTON_PRES DS824_LAT DS824_LON DS824_STAGE DS824_WIND DS824_PRES TD9636_LAT TD9636_LON TD9636_STAGE TD9636_WIND TD9636_PRES TD9635_LAT TD9635_LON TD9635_WIND TD9635_PRES TD9635_ROCI NEUMANN_LAT NEUMANN_LON NEUMANN_CLASS NEUMANN_WIND NEUMANN_PRES MLC_LAT MLC_LON MLC_CLASS MLC_WIND MLC_PRES USA_GUST BOM_GUST BOM_GUST_PER REUNION_GUST REUNION_GUST_PER USA_SEAHGT USA_SEARAD_NE USA_SEARAD_SE USA_SEARAD_SW USA_SEARAD_NW STORM_SPEED STORM_DIR
1969282N14256 1969 100 EP MM JENNIFER 1969-10-09 00:00:00 TS 14.2000 -104.100 45 hurdat_epa main 454 436 O________OO___ hurdat_epa EP101969 14.2000 -104.100 TS 45 0 14.2000 -104.100 TC 45 14.2000 -104.100 1 14 301
1969282N14256 1969 100 EP MM JENNIFER 1969-10-09 03:00:00 TS 14.5512 -104.709 main 433 421 P________PP___ EP101969 14.5504 -104.715 TS 50 0 14.5504 -104.715 TC 50 14.5544 -104.688 1 14 301
1969282N14256 1969 100 EP MM JENNIFER 1969-10-09 06:00:00 TS 14.9013 -105.292 55 hurdat_epa main 426 416 O________OP___ hurdat_epa EP101969 14.9000 -105.300 TS 55 0 14.9000 -105.300 TC 55 14.9065 -105.261 1 13 303
1969282N14256 1969 100 EP MM JENNIFER 1969-10-09 09:00:00 TS 15.2509 -105.825 main 415 415 P________PP___ EP101969 15.2499 -105.830 TS 55 0 15.2499 -105.830 TC 55 15.2552 -105.804 1 12 306
1969282N14256 1969 100 EP MM JENNIFER 1969-10-09 12:00:00 TS 15.6000 -106.300 55 hurdat_epa main 424 415 O________OO___ hurdat_epa EP101969 15.6000 -106.300 TS 55 0 15.6000 -106.300 TC 55 15.6000 -106.300 1 11 309
1969282N14256 1969 100 EP MM JENNIFER 1969-10-09 15:00:00 TS 15.9482 -106.731 main 420 405 P________PP___ EP101969 15.9499 -106.730 TS 55 0 15.9499 -106.730 TC 55 15.9414 -106.736 1 10 312
1969282N14256 1969 100 EP MM JENNIFER 1969-10-09 18:00:00 TS 16.2969 -107.103 55 hurdat_epa main 405 400 O________OP___ hurdat_epa EP101969 16.3000 -107.100 TS 55 0 16.3000 -107.100 TC 55 16.2845 -107.113 1 10 316
1969282N14256 1969 100 EP MM JENNIFER 1969-10-09 21:00:00 TS 16.6410 -107.431 main 400 391 P________PP___ EP101969 16.6424 -107.430 TS 55 0 16.6424 -107.430 TC 55 16.6353 -107.433 1 9 321
1969282N14256 1969 100 EP MM JENNIFER 1969-10-10 00:00:00 TS 17.0000 -107.700 55 hurdat_epa main 391 375 O________OO___ hurdat_epa EP101969 17.0000 -107.700 TS 55 0 17.0000 -107.700 TC 55 17.0000 -107.700 3 9 328
1969282N14256 1969 100 EP MM JENNIFER 1969-10-10 03:00:00 TS 17.3951 -107.928 main 375 363 P________PP___ EP101969 17.3924 -107.923 TS 60 0 17.3924 -107.923 TC 60 17.4057 -107.950 3 9 334
1969282N14256 1969 100 EP MM JENNIFER 1969-10-10 06:00:00 TS 17.8044 -108.110 65 hurdat_epa main 363 353 O________OP___ hurdat_epa EP101969 17.8000 -108.100 HU 65 1 17.8000 -108.100 TC 65 17.8222 -108.148 3 9 338
1969282N14256 1969 100 EP MM JENNIFER 1969-10-10 09:00:00 TS 18.2235 -108.277 main 356 342 P________PP___ EP101969 18.2225 -108.272 HU 65 1 18.2225 -108.272 TC 65 18.2276 -108.297 3 8 341
1969282N14256 1969 100 EP MM JENNIFER 1969-10-10 12:00:00 TS 18.6000 -108.400 65 hurdat_epa main 342 332 O________OO___ hurdat_epa EP101969 18.6000 -108.400 HU 65 1 18.6000 -108.400 TC 65 18.6000 -108.400 4 7 344
1969282N14256 1969 100 EP MM JENNIFER 1969-10-10 15:00:00 TS 18.8652 -108.477 main 337 327 P________PP___ EP101969 18.8650 -108.473 HU 65 1 18.8650 -108.473 TC 65 18.8661 -108.497 4 5 348
1969282N14256 1969 100 EP MM JENNIFER 1969-10-10 18:00:00 TS 19.1010 -108.509 65 hurdat_epa main 327 317 O________OP___ hurdat_epa EP101969 19.1000 -108.500 HU 65 1 19.1000 -108.500 TC 65 19.1048 -108.547 4 5 355
1969282N14256 1969 100 EP MM JENNIFER 1969-10-10 21:00:00 TS 19.3572 -108.528 main 313 302 P________PP___ EP101969 19.3550 -108.522 HU 65 1 19.3550 -108.522 TC 65 19.3661 -108.549 4 6 0
1969282N14256 1969 100 EP MM JENNIFER 1969-10-11 00:00:00 TS 19.7000 -108.500 65 hurdat_epa main 302 282 O________OO___ hurdat_epa EP101969 19.7000 -108.500 HU 65 1 19.7000 -108.500 TC 65 19.7000 -108.500 4 9 6
1969282N14256 1969 100 EP MM JENNIFER 1969-10-11 03:00:00 TS 20.2050 -108.429 main 282 271 P________PP___ EP101969 20.2125 -108.430 HU 65 1 20.2125 -108.430 TC 65 20.1749 -108.425 4 11 10
1969282N14256 1969 100 EP MM JENNIFER 1969-10-11 06:00:00 TS 20.7850 -108.299 65 hurdat_epa main 274 243 O________OP___ hurdat_epa EP101969 20.8000 -108.300 HU 65 1 20.8000 -108.300 TC 65 20.7249 -108.297 4 12 14
1969282N14256 1969 100 EP MM JENNIFER 1969-10-11 09:00:00 TS 21.3424 -108.128 main 250 211 P________PP___ EP101969 21.3500 -108.130 HU 65 1 21.3500 -108.130 TC 65 21.3124 -108.121 4 12 18
1969282N14256 1969 100 EP MM JENNIFER 1969-10-11 12:00:00 TS 21.9000 -107.900 65 hurdat_epa main 211 152 O________OO___ hurdat_epa EP101969 21.9000 -107.900 HU 65 1 21.9000 -107.900 TC 65 21.9000 -107.900 4 12 23
1969282N14256 1969 100 EP MM JENNIFER 1969-10-11 15:00:00 TS 22.4576 -107.620 main 145 90 P________PP___ EP101969 22.4575 -107.615 HU 65 1 22.4575 -107.615 TC 65 22.4581 -107.638 4 12 27
1969282N14256 1969 100 EP MM JENNIFER 1969-10-11 18:00:00 TS 22.9981 -107.307 65 hurdat_epa main 90 30 O________OP___ hurdat_epa EP101969 23.0000 -107.300 HU 65 1 23.0000 -107.300 TC 65 22.9880 -107.344 4 12 28
1969282N14256 1969 100 EP MM JENNIFER 1969-10-11 21:00:00 TS 23.5198 -107.010 main 30 0 P________PP___ EP101969 23.5224 -107.007 HU 55 0 23.5224 -107.007 TC 55 23.4990 -107.028 4 12 29
1969282N14256 1969 100 EP MM JENNIFER 1969-10-12 00:00:00 TS 24.0000 -106.700 45 hurdat_epa main 0 0 O________OO___ hurdat_epa EP101969 24.0000 -106.700 TS 45 0 24.0000 -106.700 TC 45 24.0000 -106.700 1 11 33
1969282N14256 1969 100 EP MM JENNIFER 1969-10-12 03:00:00 TS 24.4374 -106.365 main 0 0 P________P____ EP101969 24.4374 -106.365 TS 35 0 24.4374 -106.365 TC 35 1 10 39
1969282N14256 1969 100 EP MM JENNIFER 1969-10-12 06:00:00 MX 24.8000 -106.000 25 hurdat_epa main 0 0 O________O____ hurdat_epa EP101969 24.8000 -106.000 TD 25 -1 24.8000 -106.000 25 1 9 47
1969282N14256 1969 100 EP MM JENNIFER 1969-10-12 09:00:00 MX 25.0752 -105.608 main 0 0 P________P____ EP101969 25.0752 -105.608 TD 25 -1 25.0752 -105.608 25 1 9 55
1969282N14256 1969 100 EP MM JENNIFER 1969-10-12 12:00:00 MX 25.3000 -105.200 25 hurdat_epa main 0 O________O____ hurdat_epa EP101969 25.3000 -105.200 TD 25 -1 25.3000 -105.200 25 9 59

About IBTrACS Database

This database is a web-friendly format of International Best Track Archive for Climate Stewardship (IBTrACS), a global best track data archive curated by NOAA dating back to 1842.

Updated: 2021-11-26